PWSweather.com
Personal Weather Stations
Station Observations
MUNLOCHY
Munlochy Mill, MunlochyGB IV8 8NL

Munlochy MillMunlochyGB IV8 8NL

Lat: 57.548611, Lon: -4.2625966

Elevation: 62.336

Station Type: Oregon Scientific WMR200

http://www.millbankhouse.co.uk

Latest ConditionsUpdated 9:10:02 AM GMT Friday, Feb 22, 2019
Currently Today's Max Today's Min Today's Average
Temperature 55.2°F12.9°C 55.4°F13.0°C 47.5°F8.6°C 50.7°F10.4°C
Dew Point 49.2°F9.6°C 49.2°F9.6°C 40.8°F4.9°C 43.5°F6.4°C
Winds 6.9 mph WSW11.1 kmh WSW 6.9 mph -11.1 kmh - - 3.6 mph 5.8 kmh
Wind Gusts 10.4 mph16.7 kmh 15.0 mph24.1 kmh - -
Humidity 80% 84% 69% 76%
Pressure 30.25 in1024.4 mb 30.25 in1024.4 mb 30.16 in1021.3 mb -
Hour Temp Dew Point Humidity Winds Wind Gusts Pressure Precip Precip Rate Daily Precip Total
09:10 AM 55.2°F12.9°C 49.2°F9.6°C 80% 6.9 mph WSW11.1 kmh WSW 10.4 mph16.7 kmh 30.25 in1024.4 mb - 0.00 in0.0 mm 0.00 in0.0 mm
09:00 AM 55.4°F13.0°C 49.0°F9.4°C 79% 6.9 mph WSW11.1 kmh WSW 11.5 mph18.5 kmh 30.25 in1024.4 mb - 0.00 in0.0 mm 0.00 in0.0 mm
08:55 AM 55.4°F13.0°C 49.0°F9.4°C 79% 5.8 mph WSW9.3 kmh WSW 13.8 mph22.2 kmh 30.25 in1024.4 mb - 0.00 in0.0 mm 0.00 in0.0 mm
08:50 AM 55.2°F12.9°C 48.5°F9.2°C 78% 5.8 mph WSW9.3 kmh WSW 12.7 mph20.4 kmh 30.24 in1024.0 mb - 0.00 in0.0 mm 0.00 in0.0 mm
08:45 AM 55.2°F12.9°C 48.5°F9.2°C 78% 6.9 mph WSW11.1 kmh WSW 9.2 mph14.8 kmh 30.24 in1024.0 mb - 0.00 in0.0 mm 0.00 in0.0 mm
08:40 AM 55.2°F12.9°C 48.1°F8.9°C 77% 6.9 mph WSW11.1 kmh WSW 13.8 mph22.2 kmh 30.24 in1024.0 mb - 0.00 in0.0 mm 0.00 in0.0 mm
08:35 AM 55.2°F12.9°C 48.1°F8.9°C 77% 6.9 mph WSW11.1 kmh WSW 10.4 mph16.7 kmh 30.23 in1023.7 mb - 0.00 in0.0 mm 0.00 in0.0 mm
08:30 AM 55.0°F12.8°C 48.0°F8.9°C 77% 6.9 mph WSW11.1 kmh WSW 12.7 mph20.4 kmh 30.23 in1023.7 mb - 0.00 in0.0 mm 0.00 in0.0 mm
08:25 AM 54.7°F12.6°C 47.7°F8.7°C 77% 5.8 mph SW9.3 kmh SW 15.0 mph24.1 kmh 30.23 in1023.7 mb - 0.00 in0.0 mm 0.00 in0.0 mm
08:20 AM 54.0°F12.2°C 46.9°F8.3°C 77% 4.6 mph WSW7.4 kmh WSW 11.5 mph18.5 kmh 30.22 in1023.4 mb - 0.00 in0.0 mm 0.00 in0.0 mm
08:15 AM 53.5°F11.9°C 46.5°F8.1°C 77% 3.5 mph W5.6 kmh W 8.1 mph13.0 kmh 30.22 in1023.4 mb - 0.00 in0.0 mm 0.00 in0.0 mm
08:10 AM 53.1°F11.7°C 46.1°F7.8°C 77% 3.5 mph W5.6 kmh W 12.7 mph20.4 kmh 30.22 in1023.4 mb - 0.00 in0.0 mm 0.00 in0.0 mm
08:00 AM 51.9°F11.1°C 45.9°F7.7°C 80% 2.3 mph W3.7 kmh W 5.8 mph9.3 kmh 30.21 in1023.0 mb - 0.00 in0.0 mm 0.00 in0.0 mm
07:55 AM 51.3°F10.7°C 45.6°F7.6°C 81% 2.3 mph W3.7 kmh W 4.6 mph7.4 kmh 30.21 in1023.0 mb - 0.00 in0.0 mm 0.00 in0.0 mm
07:50 AM 51.3°F10.7°C 45.3°F7.4°C 80% 2.3 mph W3.7 kmh W 3.5 mph5.6 kmh 30.20 in1022.7 mb - 0.00 in0.0 mm 0.00 in0.0 mm
07:45 AM 51.0°F10.6°C 45.0°F7.2°C 80% 2.3 mph WSW3.7 kmh WSW 4.6 mph7.4 kmh 30.20 in1022.7 mb - 0.00 in0.0 mm 0.00 in0.0 mm
07:40 AM 50.9°F10.5°C 45.3°F7.4°C 81% 2.3 mph WSW3.7 kmh WSW 4.6 mph7.4 kmh 30.20 in1022.7 mb - 0.00 in0.0 mm 0.00 in0.0 mm
07:35 AM 50.9°F10.5°C 45.3°F7.4°C 81% 1.2 mph NW1.9 kmh NW 3.5 mph5.6 kmh 30.20 in1022.7 mb - 0.00 in0.0 mm 0.00 in0.0 mm
07:30 AM 50.9°F10.5°C 44.9°F7.2°C 80% 1.2 mph E1.9 kmh E 4.6 mph7.4 kmh 30.20 in1022.7 mb - 0.00 in0.0 mm 0.00 in0.0 mm
07:25 AM 51.0°F10.6°C 45.0°F7.2°C 80% 2.3 mph SSE3.7 kmh SSE 2.3 mph3.7 kmh 30.20 in1022.7 mb - 0.00 in0.0 mm 0.00 in0.0 mm
07:20 AM 51.3°F10.7°C 45.0°F7.2°C 79% 2.3 mph SSE3.7 kmh SSE -- 30.20 in1022.7 mb - 0.00 in0.0 mm 0.00 in0.0 mm
07:15 AM 51.5°F10.8°C 45.2°F7.3°C 79% 2.3 mph S3.7 kmh S 3.5 mph5.6 kmh 30.20 in1022.7 mb - 0.00 in0.0 mm 0.00 in0.0 mm
07:10 AM 52.0°F11.1°C 45.0°F7.2°C 77% 2.3 mph NW3.7 kmh NW 5.8 mph9.3 kmh 30.20 in1022.7 mb - 0.00 in0.0 mm 0.00 in0.0 mm
07:00 AM 53.2°F11.8°C 45.1°F7.3°C 74% 2.3 mph NW3.7 kmh NW 3.5 mph5.6 kmh 30.19 in1022.4 mb - 0.00 in0.0 mm 0.00 in0.0 mm
06:55 AM 53.8°F12.1°C 45.7°F7.6°C 74% 2.3 mph N3.7 kmh N 2.3 mph3.7 kmh 30.19 in1022.4 mb - 0.00 in0.0 mm 0.00 in0.0 mm
06:50 AM 53.6°F12.0°C 45.5°F7.5°C 74% 2.3 mph WSW3.7 kmh WSW 5.8 mph9.3 kmh 30.17 in1021.7 mb - 0.00 in0.0 mm 0.00 in0.0 mm
06:45 AM 53.3°F11.8°C 45.3°F7.4°C 74% 4.6 mph WSW7.4 kmh WSW 5.8 mph9.3 kmh 30.17 in1021.7 mb - 0.00 in0.0 mm 0.00 in0.0 mm
06:40 AM 53.2°F11.8°C 45.5°F7.5°C 75% 4.6 mph W7.4 kmh W 4.6 mph7.4 kmh 30.17 in1021.7 mb - 0.00 in0.0 mm 0.00 in0.0 mm
06:35 AM 53.4°F11.9°C 45.3°F7.4°C 74% 3.5 mph SE5.6 kmh SE 6.9 mph11.1 kmh 30.18 in1022.0 mb - 0.00 in0.0 mm 0.00 in0.0 mm
06:30 AM 53.4°F11.9°C 45.3°F7.4°C 74% 3.5 mph S5.6 kmh S 11.5 mph18.5 kmh 30.18 in1022.0 mb - 0.00 in0.0 mm 0.00 in0.0 mm
06:25 AM 53.2°F11.8°C 45.5°F7.5°C 75% 4.6 mph S7.4 kmh S 4.6 mph7.4 kmh 30.18 in1022.0 mb - 0.00 in0.0 mm 0.00 in0.0 mm
06:20 AM 53.1°F11.7°C 45.3°F7.4°C 75% 4.6 mph SW7.4 kmh SW 5.8 mph9.3 kmh 30.18 in1022.0 mb - 0.00 in0.0 mm 0.00 in0.0 mm
06:15 AM 52.9°F11.6°C 45.6°F7.6°C 76% 3.5 mph SW5.6 kmh SW 11.5 mph18.5 kmh 30.18 in1022.0 mb - 0.00 in0.0 mm 0.00 in0.0 mm
06:10 AM 51.8°F11.0°C 45.5°F7.5°C 79% 3.5 mph SW5.6 kmh SW 15.0 mph24.1 kmh 30.18 in1022.0 mb - 0.00 in0.0 mm 0.00 in0.0 mm
06:00 AM 49.7°F9.8°C 44.8°F7.1°C 83% 2.3 mph SSW3.7 kmh SSW 8.1 mph13.0 kmh 30.18 in1022.0 mb - 0.00 in0.0 mm 0.00 in0.0 mm
05:55 AM 48.9°F9.4°C 44.3°F6.8°C 84% 2.3 mph WSW3.7 kmh WSW 4.6 mph7.4 kmh 30.18 in1022.0 mb - 0.00 in0.0 mm 0.00 in0.0 mm
05:50 AM 48.4°F9.1°C 43.7°F6.5°C 84% 2.3 mph SW3.7 kmh SW 3.5 mph5.6 kmh 30.18 in1022.0 mb - 0.00 in0.0 mm 0.00 in0.0 mm
05:45 AM 47.8°F8.8°C 43.2°F6.2°C 84% 2.3 mph WNW3.7 kmh WNW 3.5 mph5.6 kmh 30.18 in1022.0 mb - 0.00 in0.0 mm 0.00 in0.0 mm
05:40 AM 47.8°F8.8°C 42.9°F6.1°C 83% 2.3 mph ENE3.7 kmh ENE 3.5 mph5.6 kmh 30.18 in1022.0 mb - 0.00 in0.0 mm 0.00 in0.0 mm
05:35 AM 48.0°F8.9°C 43.4°F6.3°C 84% 1.2 mph NE1.9 kmh NE 3.5 mph5.6 kmh 30.19 in1022.4 mb - 0.00 in0.0 mm 0.00 in0.0 mm
05:30 AM 48.2°F9.0°C 43.3°F6.3°C 83% 1.2 mph NNE1.9 kmh NNE 4.6 mph7.4 kmh 30.19 in1022.4 mb - 0.00 in0.0 mm 0.00 in0.0 mm
05:25 AM 48.4°F9.1°C 43.5°F6.4°C 83% 2.3 mph WSW3.7 kmh WSW 2.3 mph3.7 kmh 30.19 in1022.4 mb - 0.00 in0.0 mm 0.00 in0.0 mm
05:20 AM 48.6°F9.2°C 43.3°F6.3°C 82% 2.3 mph WSW3.7 kmh WSW 1.2 mph1.9 kmh 30.19 in1022.4 mb - 0.00 in0.0 mm 0.00 in0.0 mm
05:15 AM 48.7°F9.3°C 43.5°F6.4°C 82% 3.5 mph WSW5.6 kmh WSW 2.3 mph3.7 kmh 30.19 in1022.4 mb - 0.00 in0.0 mm 0.00 in0.0 mm
05:10 AM 48.6°F9.2°C 43.3°F6.3°C 82% 3.5 mph W5.6 kmh W 2.3 mph3.7 kmh 30.19 in1022.4 mb - 0.00 in0.0 mm 0.00 in0.0 mm
05:00 AM 48.2°F9.0°C 43.0°F6.1°C 82% 3.5 mph W5.6 kmh W 5.8 mph9.3 kmh 30.19 in1022.4 mb - 0.00 in0.0 mm 0.00 in0.0 mm
04:55 AM 47.8°F8.8°C 42.6°F5.9°C 82% 2.3 mph W3.7 kmh W 5.8 mph9.3 kmh 30.19 in1022.4 mb - 0.00 in0.0 mm 0.00 in0.0 mm
04:50 AM 47.7°F8.7°C 42.8°F6.0°C 83% 2.3 mph WSW3.7 kmh WSW 4.6 mph7.4 kmh 30.18 in1022.0 mb - 0.00 in0.0 mm 0.00 in0.0 mm
04:45 AM 47.6°F8.7°C 42.7°F5.9°C 83% 2.3 mph WSW3.7 kmh WSW 4.6 mph7.4 kmh 30.18 in1022.0 mb - 0.00 in0.0 mm 0.00 in0.0 mm
04:40 AM 47.5°F8.6°C 42.3°F5.7°C 82% 2.3 mph WSW3.7 kmh WSW 2.3 mph3.7 kmh 30.18 in1022.0 mb - 0.00 in0.0 mm 0.00 in0.0 mm
04:35 AM 47.5°F8.6°C 41.9°F5.5°C 81% 2.3 mph W3.7 kmh W 4.6 mph7.4 kmh 30.19 in1022.4 mb - 0.00 in0.0 mm 0.00 in0.0 mm
04:30 AM 47.7°F8.7°C 41.9°F5.5°C 80% 2.3 mph S3.7 kmh S 3.5 mph5.6 kmh 30.19 in1022.4 mb - 0.00 in0.0 mm 0.00 in0.0 mm
04:25 AM 48.1°F8.9°C 41.9°F5.5°C 79% 2.3 mph SSW3.7 kmh SSW 2.3 mph3.7 kmh 30.19 in1022.4 mb - 0.00 in0.0 mm 0.00 in0.0 mm
04:20 AM 48.4°F9.1°C 42.2°F5.7°C 79% 2.3 mph SSW3.7 kmh SSW 2.3 mph3.7 kmh 30.19 in1022.4 mb - 0.00 in0.0 mm 0.00 in0.0 mm
04:15 AM 48.5°F9.2°C 42.0°F5.6°C 78% 3.5 mph W5.6 kmh W 3.5 mph5.6 kmh 30.19 in1022.4 mb - 0.00 in0.0 mm 0.00 in0.0 mm
04:10 AM 48.9°F9.4°C 42.0°F5.6°C 77% 3.5 mph WSW5.6 kmh WSW 3.5 mph5.6 kmh 30.19 in1022.4 mb - 0.00 in0.0 mm 0.00 in0.0 mm
04:00 AM 49.9°F9.9°C 42.3°F5.7°C 75% 3.5 mph WSW5.6 kmh WSW 5.8 mph9.3 kmh 30.19 in1022.4 mb - 0.00 in0.0 mm 0.00 in0.0 mm
03:55 AM 50.3°F10.2°C 42.3°F5.7°C 74% 4.6 mph WSW7.4 kmh WSW 5.8 mph9.3 kmh 30.19 in1022.4 mb - 0.00 in0.0 mm 0.00 in0.0 mm
03:50 AM 50.7°F10.4°C 42.4°F5.8°C 73% 4.6 mph WSW7.4 kmh WSW 4.6 mph7.4 kmh 30.19 in1022.4 mb - 0.00 in0.0 mm 0.00 in0.0 mm
03:45 AM 51.1°F10.6°C 42.4°F5.8°C 72% 5.8 mph WSW9.3 kmh WSW 3.5 mph5.6 kmh 30.19 in1022.4 mb - 0.00 in0.0 mm 0.00 in0.0 mm
03:40 AM 50.9°F10.5°C 42.5°F5.8°C 73% 5.8 mph WSW9.3 kmh WSW 8.1 mph13.0 kmh 30.19 in1022.4 mb - 0.00 in0.0 mm 0.00 in0.0 mm
03:35 AM 50.4°F10.2°C 42.1°F5.6°C 73% 3.5 mph WSW5.6 kmh WSW 8.1 mph13.0 kmh 30.21 in1023.0 mb - 0.00 in0.0 mm 0.00 in0.0 mm
03:30 AM 49.7°F9.8°C 41.8°F5.4°C 74% 3.5 mph WSW5.6 kmh WSW 6.9 mph11.1 kmh 30.21 in1023.0 mb - 0.00 in0.0 mm 0.00 in0.0 mm
03:25 AM 48.7°F9.3°C 41.2°F5.1°C 75% 2.3 mph W3.7 kmh W 5.8 mph9.3 kmh 30.21 in1023.0 mb - 0.00 in0.0 mm 0.00 in0.0 mm
03:20 AM 48.7°F9.3°C 40.8°F4.9°C 74% 2.3 mph WSW3.7 kmh WSW 8.1 mph13.0 kmh 30.20 in1022.7 mb - 0.00 in0.0 mm 0.00 in0.0 mm
03:15 AM 49.3°F9.6°C 41.0°F5.0°C 73% 3.5 mph WSW5.6 kmh WSW 4.6 mph7.4 kmh 30.20 in1022.7 mb - 0.00 in0.0 mm 0.00 in0.0 mm
03:10 AM 49.8°F9.9°C 41.1°F5.1°C 72% 3.5 mph SW5.6 kmh SW 3.5 mph5.6 kmh 30.20 in1022.7 mb - 0.00 in0.0 mm 0.00 in0.0 mm
03:00 AM 50.4°F10.2°C 40.9°F4.9°C 70% 3.5 mph WSW5.6 kmh WSW 3.5 mph5.6 kmh 30.19 in1022.4 mb - 0.00 in0.0 mm 0.00 in0.0 mm
02:55 AM 50.3°F10.2°C 41.3°F5.2°C 71% 4.6 mph WSW7.4 kmh WSW 4.6 mph7.4 kmh 30.19 in1022.4 mb - 0.00 in0.0 mm 0.00 in0.0 mm
02:50 AM 50.4°F10.2°C 41.3°F5.2°C 71% 4.6 mph WSW7.4 kmh WSW 5.8 mph9.3 kmh 30.20 in1022.7 mb - 0.00 in0.0 mm 0.00 in0.0 mm
02:45 AM 50.4°F10.2°C 40.9°F4.9°C 70% 3.5 mph WSW5.6 kmh WSW 6.9 mph11.1 kmh 30.20 in1022.7 mb - 0.00 in0.0 mm 0.00 in0.0 mm
02:40 AM 50.5°F10.3°C 41.1°F5.1°C 70% 3.5 mph WSW5.6 kmh WSW 5.8 mph9.3 kmh 30.20 in1022.7 mb - 0.00 in0.0 mm 0.00 in0.0 mm
02:35 AM 50.7°F10.4°C 40.9°F4.9°C 69% 4.6 mph W7.4 kmh W 4.6 mph7.4 kmh 30.20 in1022.7 mb - 0.00 in0.0 mm 0.00 in0.0 mm
02:30 AM 50.7°F10.4°C 40.9°F4.9°C 69% 4.6 mph W7.4 kmh W 3.5 mph5.6 kmh 30.20 in1022.7 mb - 0.00 in0.0 mm 0.00 in0.0 mm
02:25 AM 50.7°F10.4°C 40.9°F4.9°C 69% 5.8 mph WSW9.3 kmh WSW 6.9 mph11.1 kmh 30.20 in1022.7 mb - 0.00 in0.0 mm 0.00 in0.0 mm
02:20 AM 50.5°F10.3°C 41.1°F5.1°C 70% 5.8 mph WSW9.3 kmh WSW 5.8 mph9.3 kmh 30.19 in1022.4 mb - 0.00 in0.0 mm 0.00 in0.0 mm
02:15 AM 50.3°F10.2°C 40.8°F4.9°C 70% 3.5 mph WSW5.6 kmh WSW 10.4 mph16.7 kmh 30.19 in1022.4 mb - 0.00 in0.0 mm 0.00 in0.0 mm
02:10 AM 49.3°F9.6°C 41.0°F5.0°C 73% 3.5 mph WSW5.6 kmh WSW 12.7 mph20.4 kmh 30.19 in1022.4 mb - 0.00 in0.0 mm 0.00 in0.0 mm
02:00 AM 48.9°F9.4°C 41.0°F5.0°C 74% 3.5 mph SE5.6 kmh SE 4.6 mph7.4 kmh 30.18 in1022.0 mb - 0.00 in0.0 mm 0.00 in0.0 mm
01:55 AM 48.9°F9.4°C 41.0°F5.0°C 74% 2.3 mph S3.7 kmh S 3.5 mph5.6 kmh 30.18 in1022.0 mb - 0.00 in0.0 mm 0.00 in0.0 mm
01:50 AM 48.9°F9.4°C 41.0°F5.0°C 74% 2.3 mph SSW3.7 kmh SSW 4.6 mph7.4 kmh 30.17 in1021.7 mb - 0.00 in0.0 mm 0.00 in0.0 mm
01:45 AM 49.1°F9.5°C 41.2°F5.1°C 74% 2.3 mph SW3.7 kmh SW 4.6 mph7.4 kmh 30.17 in1021.7 mb - 0.00 in0.0 mm 0.00 in0.0 mm
01:40 AM 49.3°F9.6°C 41.3°F5.2°C 74% 2.3 mph SE3.7 kmh SE 3.5 mph5.6 kmh 30.17 in1021.7 mb - 0.00 in0.0 mm 0.00 in0.0 mm
01:35 AM 49.5°F9.7°C 41.5°F5.3°C 74% 4.6 mph N7.4 kmh N 4.6 mph7.4 kmh 30.17 in1021.7 mb - 0.00 in0.0 mm 0.00 in0.0 mm
01:30 AM 49.8°F9.9°C 41.5°F5.3°C 73% 4.6 mph NE7.4 kmh NE 3.5 mph5.6 kmh 30.17 in1021.7 mb - 0.00 in0.0 mm 0.00 in0.0 mm
01:25 AM 49.8°F9.9°C 41.5°F5.3°C 73% 5.8 mph WSW9.3 kmh WSW 9.2 mph14.8 kmh 30.17 in1021.7 mb - 0.00 in0.0 mm 0.00 in0.0 mm
01:20 AM 49.8°F9.9°C 41.9°F5.5°C 74% 5.8 mph WSW9.3 kmh WSW 10.4 mph16.7 kmh 30.16 in1021.3 mb - 0.00 in0.0 mm 0.00 in0.0 mm
01:15 AM 50.2°F10.1°C 42.2°F5.7°C 74% 5.8 mph WNW9.3 kmh WNW 9.2 mph14.8 kmh 30.16 in1021.3 mb - 0.00 in0.0 mm 0.00 in0.0 mm
01:10 AM 50.4°F10.2°C 42.7°F5.9°C 75% 5.8 mph W9.3 kmh W 8.1 mph13.0 kmh 30.16 in1021.3 mb - 0.00 in0.0 mm 0.00 in0.0 mm
01:00 AM 50.6°F10.3°C 42.6°F5.9°C 74% 5.8 mph WSW9.3 kmh WSW 8.1 mph13.0 kmh 30.17 in1021.7 mb - 0.00 in0.0 mm 0.00 in0.0 mm
12:55 AM 50.6°F10.3°C 42.3°F5.7°C 73% 4.6 mph WSW7.4 kmh WSW 11.5 mph18.5 kmh 30.17 in1021.7 mb - 0.00 in0.0 mm 0.00 in0.0 mm
12:50 AM 50.4°F10.2°C 42.4°F5.8°C 74% 4.6 mph WSW7.4 kmh WSW 8.1 mph13.0 kmh 30.16 in1021.3 mb - 0.00 in0.0 mm 0.00 in0.0 mm
12:45 AM 50.4°F10.2°C 42.4°F5.8°C 74% 4.6 mph WSW7.4 kmh WSW 6.9 mph11.1 kmh 30.16 in1021.3 mb - 0.00 in0.0 mm 0.00 in0.0 mm
12:40 AM 50.3°F10.2°C 42.3°F5.7°C 74% 4.6 mph WSW7.4 kmh WSW 8.1 mph13.0 kmh 30.16 in1021.3 mb - 0.00 in0.0 mm 0.00 in0.0 mm
12:35 AM 49.9°F9.9°C 42.3°F5.7°C 75% 2.3 mph W3.7 kmh W 9.2 mph14.8 kmh 30.17 in1021.7 mb - 0.00 in0.0 mm 0.00 in0.0 mm
12:30 AM 49.8°F9.9°C 42.2°F5.7°C 75% 2.3 mph SW3.7 kmh SW 5.8 mph9.3 kmh 30.17 in1021.7 mb - 0.00 in0.0 mm 0.00 in0.0 mm
12:25 AM 50.2°F10.1°C 42.6°F5.9°C 75% 3.5 mph WNW5.6 kmh WNW 6.9 mph11.1 kmh 30.17 in1021.7 mb - 0.00 in0.0 mm 0.00 in0.0 mm
12:20 AM 50.4°F10.2°C 42.7°F5.9°C 75% 3.5 mph SW5.6 kmh SW 2.3 mph3.7 kmh 30.16 in1021.3 mb - 0.00 in0.0 mm 0.00 in0.0 mm
12:15 AM 50.5°F10.3°C 42.9°F6.1°C 75% 3.5 mph W5.6 kmh W 3.5 mph5.6 kmh 30.16 in1021.3 mb - 0.00 in0.0 mm 0.00 in0.0 mm
12:10 AM 50.4°F10.2°C 42.8°F6.0°C 75% 3.5 mph W5.6 kmh W 4.6 mph7.4 kmh 30.16 in1021.3 mb - 0.00 in0.0 mm 0.00 in0.0 mm
12:00 AM 50.4°F10.2°C 43.1°F6.2°C 76% 2.3 mph W3.7 kmh W 5.8 mph9.3 kmh 30.16 in1021.3 mb - 0.00 in0.0 mm 0.00 in0.0 mm